sensor_id;sensor_type;location;lat;lon;timestamp;P1;durP1;ratioP1;P2;durP2;ratioP2
25846;SDS011;13676;50.168;8.568;2023-08-21T00:01:18;6.70;;;5.78;;
25846;SDS011;13676;50.168;8.568;2023-08-21T00:03:43;8.93;;;5.95;;
25846;SDS011;13676;50.168;8.568;2023-08-21T00:06:10;6.20;;;5.33;;
25846;SDS011;13676;50.168;8.568;2023-08-21T00:08:36;7.57;;;5.50;;
25846;SDS011;13676;50.168;8.568;2023-08-21T00:11:01;8.40;;;5.60;;
25846;SDS011;13676;50.168;8.568;2023-08-21T00:13:26;7.40;;;5.97;;
25846;SDS011;13676;50.168;8.568;2023-08-21T00:15:52;6.85;;;5.60;;
25846;SDS011;13676;50.168;8.568;2023-08-21T00:18:17;6.80;;;5.75;;
25846;SDS011;13676;50.168;8.568;2023-08-21T00:20:43;8.15;;;5.70;;
25846;SDS011;13676;50.168;8.568;2023-08-21T00:23:08;10.43;;;6.20;;
25846;SDS011;13676;50.168;8.568;2023-08-21T00:25:34;6.30;;;5.70;;
25846;SDS011;13676;50.168;8.568;2023-08-21T00:28:00;7.25;;;5.65;;
25846;SDS011;13676;50.168;8.568;2023-08-21T00:30:26;7.15;;;6.00;;
25846;SDS011;13676;50.168;8.568;2023-08-21T00:32:51;8.10;;;6.07;;
25846;SDS011;13676;50.168;8.568;2023-08-21T00:35:16;8.55;;;6.75;;
25846;SDS011;13676;50.168;8.568;2023-08-21T00:37:42;7.25;;;5.65;;
25846;SDS011;13676;50.168;8.568;2023-08-21T00:40:07;6.85;;;5.75;;
25846;SDS011;13676;50.168;8.568;2023-08-21T00:42:33;7.53;;;6.13;;
25846;SDS011;13676;50.168;8.568;2023-08-21T00:44:58;13.02;;;6.40;;
25846;SDS011;13676;50.168;8.568;2023-08-21T00:47:23;6.28;;;5.32;;
25846;SDS011;13676;50.168;8.568;2023-08-21T00:49:50;9.05;;;6.28;;
25846;SDS011;13676;50.168;8.568;2023-08-21T00:52:15;7.53;;;6.38;;
25846;SDS011;13676;50.168;8.568;2023-08-21T00:54:42;7.80;;;6.13;;
25846;SDS011;13676;50.168;8.568;2023-08-21T00:57:07;8.98;;;6.28;;
25846;SDS011;13676;50.168;8.568;2023-08-21T00:59:36;7.05;;;6.00;;
25846;SDS011;13676;50.168;8.568;2023-08-21T01:02:03;10.05;;;6.22;;
25846;SDS011;13676;50.168;8.568;2023-08-21T02:10:24;7.50;;;6.05;;
25846;SDS011;13676;50.168;8.568;2023-08-21T02:12:50;5.45;;;4.93;;
25846;SDS011;13676;50.168;8.568;2023-08-21T02:15:16;6.57;;;4.97;;
25846;SDS011;13676;50.168;8.568;2023-08-21T02:17:42;5.05;;;4.55;;
25846;SDS011;13676;50.168;8.568;2023-08-21T02:20:08;7.72;;;5.22;;
25846;SDS011;13676;50.168;8.568;2023-08-21T02:22:34;5.18;;;4.25;;
25846;SDS011;13676;50.168;8.568;2023-08-21T02:24:59;7.55;;;5.47;;
25846;SDS011;13676;50.168;8.568;2023-08-21T02:27:25;5.88;;;4.47;;
25846;SDS011;13676;50.168;8.568;2023-08-21T02:29:50;4.68;;;4.28;;
25846;SDS011;13676;50.168;8.568;2023-08-21T02:32:16;5.75;;;4.30;;
25846;SDS011;13676;50.168;8.568;2023-08-21T02:34:41;5.15;;;4.65;;
25846;SDS011;13676;50.168;8.568;2023-08-21T02:37:08;4.32;;;3.90;;
25846;SDS011;13676;50.168;8.568;2023-08-21T02:39:34;4.85;;;3.95;;
25846;SDS011;13676;50.168;8.568;2023-08-21T02:41:59;4.45;;;4.05;;
25846;SDS011;13676;50.168;8.568;2023-08-21T02:44:26;4.03;;;3.63;;
25846;SDS011;13676;50.168;8.568;2023-08-21T02:46:51;5.55;;;4.18;;
25846;SDS011;13676;50.168;8.568;2023-08-21T02:49:16;4.65;;;4.22;;
25846;SDS011;13676;50.168;8.568;2023-08-21T02:51:43;4.10;;;3.70;;
25846;SDS011;13676;50.168;8.568;2023-08-21T02:54:08;4.10;;;3.70;;
25846;SDS011;13676;50.168;8.568;2023-08-21T02:56:34;4.88;;;4.35;;
25846;SDS011;13676;50.168;8.568;2023-08-21T02:58:59;5.80;;;4.43;;
25846;SDS011;13676;50.168;8.568;2023-08-21T03:01:25;4.45;;;4.00;;
25846;SDS011;13676;50.168;8.568;2023-08-21T03:03:51;5.53;;;4.00;;
25846;SDS011;13676;50.168;8.568;2023-08-21T03:06:16;6.70;;;4.28;;
25846;SDS011;13676;50.168;8.568;2023-08-21T03:08:41;5.00;;;4.32;;
25846;SDS011;13676;50.168;8.568;2023-08-21T03:11:08;5.72;;;4.40;;
25846;SDS011;13676;50.168;8.568;2023-08-21T03:13:34;4.70;;;4.18;;
25846;SDS011;13676;50.168;8.568;2023-08-21T03:16:00;5.13;;;4.57;;
25846;SDS011;13676;50.168;8.568;2023-08-21T03:18:29;4.35;;;3.95;;
25846;SDS011;13676;50.168;8.568;2023-08-21T04:30:39;5.90;;;3.67;;
25846;SDS011;13676;50.168;8.568;2023-08-21T04:33:06;5.13;;;4.57;;
25846;SDS011;13676;50.168;8.568;2023-08-21T04:35:35;8.00;;;4.00;;
25846;SDS011;13676;50.168;8.568;2023-08-21T04:38:02;4.65;;;3.85;;
25846;SDS011;13676;50.168;8.568;2023-08-21T04:40:27;8.85;;;4.35;;
25846;SDS011;13676;50.168;8.568;2023-08-21T04:42:52;6.72;;;4.20;;
25846;SDS011;13676;50.168;8.568;2023-08-21T04:45:18;4.78;;;4.25;;
25846;SDS011;13676;50.168;8.568;2023-08-21T04:47:43;5.15;;;4.03;;
25846;SDS011;13676;50.168;8.568;2023-08-21T04:50:08;3.95;;;3.53;;
25846;SDS011;13676;50.168;8.568;2023-08-21T04:52:34;4.40;;;3.83;;
25846;SDS011;13676;50.168;8.568;2023-08-21T04:54:59;5.28;;;4.20;;
25846;SDS011;13676;50.168;8.568;2023-08-21T04:57:24;5.35;;;3.85;;
25846;SDS011;13676;50.168;8.568;2023-08-21T04:59:50;5.30;;;4.22;;
25846;SDS011;13676;50.168;8.568;2023-08-21T05:02:15;5.63;;;4.60;;
25846;SDS011;13676;50.168;8.568;2023-08-21T05:04:41;6.88;;;4.65;;
25846;SDS011;13676;50.168;8.568;2023-08-21T05:07:06;4.38;;;3.88;;
25846;SDS011;13676;50.168;8.568;2023-08-21T05:09:32;7.38;;;3.92;;
25846;SDS011;13676;50.168;8.568;2023-08-21T05:11:57;4.75;;;4.25;;
25846;SDS011;13676;50.168;8.568;2023-08-21T05:14:23;5.78;;;4.63;;
25846;SDS011;13676;50.168;8.568;2023-08-21T05:16:49;5.78;;;4.40;;
25846;SDS011;13676;50.168;8.568;2023-08-21T05:19:14;4.60;;;3.75;;
25846;SDS011;13676;50.168;8.568;2023-08-21T05:21:41;4.85;;;4.20;;
25846;SDS011;13676;50.168;8.568;2023-08-21T05:24:07;7.05;;;3.55;;
25846;SDS011;13676;50.168;8.568;2023-08-21T05:26:32;4.63;;;4.07;;
25846;SDS011;13676;50.168;8.568;2023-08-21T05:28:58;4.95;;;4.28;;
25846;SDS011;13676;50.168;8.568;2023-08-21T05:31:24;4.88;;;4.35;;
25846;SDS011;13676;50.168;8.568;2023-08-21T05:33:49;9.55;;;4.90;;
25846;SDS011;13676;50.168;8.568;2023-08-21T05:36:15;6.95;;;5.35;;
25846;SDS011;13676;50.168;8.568;2023-08-21T05:38:40;5.65;;;4.50;;
25846;SDS011;13676;50.168;8.568;2023-08-21T05:51:25;8.48;;;5.20;;
25846;SDS011;13676;50.168;8.568;2023-08-21T05:59:04;5.95;;;4.93;;
25846;SDS011;13676;50.168;8.568;2023-08-21T06:50:33;5.55;;;4.18;;
25846;SDS011;13676;50.168;8.568;2023-08-21T06:53:02;5.07;;;3.92;;
25846;SDS011;13676;50.168;8.568;2023-08-21T06:55:28;5.80;;;4.18;;
25846;SDS011;13676;50.168;8.568;2023-08-21T06:57:53;5.80;;;4.60;;
25846;SDS011;13676;50.168;8.568;2023-08-21T07:00:19;6.90;;;4.65;;
25846;SDS011;13676;50.168;8.568;2023-08-21T07:02:45;5.97;;;4.32;;
25846;SDS011;13676;50.168;8.568;2023-08-21T07:05:17;7.03;;;4.75;;
25846;SDS011;13676;50.168;8.568;2023-08-21T07:07:43;5.78;;;4.10;;
25846;SDS011;13676;50.168;8.568;2023-08-21T07:10:09;5.03;;;4.15;;
25846;SDS011;13676;50.168;8.568;2023-08-21T07:12:35;4.47;;;3.70;;
25846;SDS011;13676;50.168;8.568;2023-08-21T07:15:01;7.35;;;5.13;;
25846;SDS011;13676;50.168;8.568;2023-08-21T07:17:27;8.07;;;4.82;;
25846;SDS011;13676;50.168;8.568;2023-08-21T07:19:53;5.63;;;4.55;;
25846;SDS011;13676;50.168;8.568;2023-08-21T07:22:19;12.63;;;4.80;;
25846;SDS011;13676;50.168;8.568;2023-08-21T07:24:48;6.72;;;4.55;;
25846;SDS011;13676;50.168;8.568;2023-08-21T07:27:14;6.72;;;5.05;;
25846;SDS011;13676;50.168;8.568;2023-08-21T07:29:42;6.53;;;4.55;;
25846;SDS011;13676;50.168;8.568;2023-08-21T07:32:08;6.70;;;4.45;;
25846;SDS011;13676;50.168;8.568;2023-08-21T07:34:33;4.03;;;3.65;;
25846;SDS011;13676;50.168;8.568;2023-08-21T07:37:03;4.70;;;4.30;;
25846;SDS011;13676;50.168;8.568;2023-08-21T07:39:28;7.43;;;4.50;;
25846;SDS011;13676;50.168;8.568;2023-08-21T07:41:56;7.95;;;4.50;;
25846;SDS011;13676;50.168;8.568;2023-08-21T07:44:22;4.90;;;4.38;;
25846;SDS011;13676;50.168;8.568;2023-08-21T07:46:50;6.90;;;4.22;;
25846;SDS011;13676;50.168;8.568;2023-08-21T07:49:16;5.75;;;4.20;;
25846;SDS011;13676;50.168;8.568;2023-08-21T07:51:45;5.05;;;4.55;;
25846;SDS011;13676;50.168;8.568;2023-08-21T07:54:17;5.82;;;4.20;;
25846;SDS011;13676;50.168;8.568;2023-08-21T07:56:45;9.73;;;4.65;;
25846;SDS011;13676;50.168;8.568;2023-08-21T07:59:11;13.70;;;4.72;;
25846;SDS011;13676;50.168;8.568;2023-08-21T08:01:36;5.63;;;4.15;;
25846;SDS011;13676;50.168;8.568;2023-08-21T08:04:03;7.32;;;4.78;;
25846;SDS011;13676;50.168;8.568;2023-08-21T08:06:31;4.03;;;3.63;;
25846;SDS011;13676;50.168;8.568;2023-08-21T08:08:56;4.70;;;4.25;;
25846;SDS011;13676;50.168;8.568;2023-08-21T08:11:22;5.25;;;3.80;;
25846;SDS011;13676;50.168;8.568;2023-08-21T08:13:48;4.90;;;3.97;;
25846;SDS011;13676;50.168;8.568;2023-08-21T08:16:14;4.32;;;3.80;;
25846;SDS011;13676;50.168;8.568;2023-08-21T08:18:40;3.90;;;3.50;;
25846;SDS011;13676;50.168;8.568;2023-08-21T08:21:06;7.78;;;3.67;;
25846;SDS011;13676;50.168;8.568;2023-08-21T08:23:31;7.47;;;3.83;;
25846;SDS011;13676;50.168;8.568;2023-08-21T08:25:57;7.32;;;4.40;;
25846;SDS011;13676;50.168;8.568;2023-08-21T08:28:22;5.93;;;3.88;;
25846;SDS011;13676;50.168;8.568;2023-08-21T08:30:47;8.00;;;3.63;;
25846;SDS011;13676;50.168;8.568;2023-08-21T08:33:13;4.82;;;4.00;;
25846;SDS011;13676;50.168;8.568;2023-08-21T08:35:38;5.00;;;3.88;;
25846;SDS011;13676;50.168;8.568;2023-08-21T08:38:05;5.50;;;4.10;;
25846;SDS011;13676;50.168;8.568;2023-08-21T08:40:31;5.40;;;3.65;;
25846;SDS011;13676;50.168;8.568;2023-08-21T08:42:56;6.68;;;4.68;;
25846;SDS011;13676;50.168;8.568;2023-08-21T08:45:26;8.20;;;4.00;;
25846;SDS011;13676;50.168;8.568;2023-08-21T08:47:55;8.73;;;3.95;;
25846;SDS011;13676;50.168;8.568;2023-08-21T08:52:48;9.57;;;4.00;;
25846;SDS011;13676;50.168;8.568;2023-08-21T08:55:13;9.25;;;3.67;;
25846;SDS011;13676;50.168;8.568;2023-08-21T08:57:39;4.57;;;3.75;;
25846;SDS011;13676;50.168;8.568;2023-08-21T09:00:06;9.18;;;3.83;;
25846;SDS011;13676;50.168;8.568;2023-08-21T09:02:32;6.07;;;3.88;;
25846;SDS011;13676;50.168;8.568;2023-08-21T09:04:58;4.18;;;3.42;;
25846;SDS011;13676;50.168;8.568;2023-08-21T09:07:25;6.70;;;3.90;;
25846;SDS011;13676;50.168;8.568;2023-08-21T09:12:18;5.75;;;3.97;;
25846;SDS011;13676;50.168;8.568;2023-08-21T09:14:45;5.15;;;3.28;;
25846;SDS011;13676;50.168;8.568;2023-08-21T09:17:13;4.50;;;3.77;;
25846;SDS011;13676;50.168;8.568;2023-08-21T09:24:37;6.47;;;3.70;;
25846;SDS011;13676;50.168;8.568;2023-08-21T09:27:03;6.50;;;3.83;;
25846;SDS011;13676;50.168;8.568;2023-08-21T09:29:40;3.38;;;2.90;;
25846;SDS011;13676;50.168;8.568;2023-08-21T09:32:06;4.70;;;3.35;;
25846;SDS011;13676;50.168;8.568;2023-08-21T09:34:35;4.03;;;2.70;;
25846;SDS011;13676;50.168;8.568;2023-08-21T09:37:06;4.68;;;3.40;;
25846;SDS011;13676;50.168;8.568;2023-08-21T09:39:33;9.00;;;3.78;;
25846;SDS011;13676;50.168;8.568;2023-08-21T09:41:59;6.78;;;3.33;;
25846;SDS011;13676;50.168;8.568;2023-08-21T09:44:26;3.90;;;3.10;;
25846;SDS011;13676;50.168;8.568;2023-08-21T09:46:55;4.93;;;3.35;;
25846;SDS011;13676;50.168;8.568;2023-08-21T09:49:22;4.63;;;3.10;;
25846;SDS011;13676;50.168;8.568;2023-08-21T09:51:47;3.38;;;3.00;;
25846;SDS011;13676;50.168;8.568;2023-08-21T09:54:13;4.70;;;3.10;;
25846;SDS011;13676;50.168;8.568;2023-08-21T09:56:39;5.63;;;3.07;;
25846;SDS011;13676;50.168;8.568;2023-08-21T09:59:04;4.87;;;3.10;;
25846;SDS011;13676;50.168;8.568;2023-08-21T10:01:30;3.30;;;2.70;;
25846;SDS011;13676;50.168;8.568;2023-08-21T10:03:58;4.68;;;3.63;;
25846;SDS011;13676;50.168;8.568;2023-08-21T10:06:28;3.13;;;2.70;;
25846;SDS011;13676;50.168;8.568;2023-08-21T10:08:54;3.88;;;3.00;;
25846;SDS011;13676;50.168;8.568;2023-08-21T10:11:21;4.35;;;2.95;;
25846;SDS011;13676;50.168;8.568;2023-08-21T10:13:46;4.27;;;3.03;;
25846;SDS011;13676;50.168;8.568;2023-08-21T10:16:12;4.13;;;3.13;;
25846;SDS011;13676;50.168;8.568;2023-08-21T10:18:42;3.70;;;3.00;;
25846;SDS011;13676;50.168;8.568;2023-08-21T10:21:16;3.63;;;2.78;;
25846;SDS011;13676;50.168;8.568;2023-08-21T10:23:43;4.07;;;3.05;;
25846;SDS011;13676;50.168;8.568;2023-08-21T10:26:11;4.13;;;2.85;;
25846;SDS011;13676;50.168;8.568;2023-08-21T10:31:25;6.20;;;2.60;;
25846;SDS011;13676;50.168;8.568;2023-08-21T10:34:15;3.35;;;2.55;;
25846;SDS011;13676;50.168;8.568;2023-08-21T10:37:04;3.47;;;2.47;;
25846;SDS011;13676;50.168;8.568;2023-08-21T10:39:54;4.68;;;3.00;;
25846;SDS011;13676;50.168;8.568;2023-08-21T10:45:12;4.22;;;3.08;;
25846;SDS011;13676;50.168;8.568;2023-08-21T10:47:53;4.30;;;2.97;;
25846;SDS011;13676;50.168;8.568;2023-08-21T10:50:25;2.85;;;2.17;;
25846;SDS011;13676;50.168;8.568;2023-08-21T10:53:11;3.45;;;2.35;;
25846;SDS011;13676;50.168;8.568;2023-08-21T10:55:41;4.38;;;2.65;;
25846;SDS011;13676;50.168;8.568;2023-08-21T10:58:38;5.68;;;2.90;;
25846;SDS011;13676;50.168;8.568;2023-08-21T11:01:18;8.90;;;3.13;;
25846;SDS011;13676;50.168;8.568;2023-08-21T11:03:50;4.20;;;2.63;;
25846;SDS011;13676;50.168;8.568;2023-08-21T11:06:20;5.80;;;2.63;;
25846;SDS011;13676;50.168;8.568;2023-08-21T11:08:49;4.40;;;2.65;;
25846;SDS011;13676;50.168;8.568;2023-08-21T11:11:18;3.63;;;2.33;;
25846;SDS011;13676;50.168;8.568;2023-08-21T11:13:53;4.60;;;2.55;;
25846;SDS011;13676;50.168;8.568;2023-08-21T11:16:26;3.15;;;2.30;;
25846;SDS011;13676;50.168;8.568;2023-08-21T11:19:18;2.95;;;2.63;;
25846;SDS011;13676;50.168;8.568;2023-08-21T11:21:53;2.78;;;2.10;;
25846;SDS011;13676;50.168;8.568;2023-08-21T11:24:41;6.50;;;2.50;;
25846;SDS011;13676;50.168;8.568;2023-08-21T11:27:27;3.22;;;2.50;;
25846;SDS011;13676;50.168;8.568;2023-08-21T11:29:57;8.40;;;2.72;;
25846;SDS011;13676;50.168;8.568;2023-08-21T11:32:44;2.80;;;2.50;;
25846;SDS011;13676;50.168;8.568;2023-08-21T11:35:37;3.80;;;2.40;;
25846;SDS011;13676;50.168;8.568;2023-08-21T11:38:14;2.65;;;2.10;;
25846;SDS011;13676;50.168;8.568;2023-08-21T11:43:41;3.50;;;2.33;;
25846;SDS011;13676;50.168;8.568;2023-08-21T11:46:34;3.50;;;2.38;;
25846;SDS011;13676;50.168;8.568;2023-08-21T11:49:10;2.83;;;1.90;;
25846;SDS011;13676;50.168;8.568;2023-08-21T11:51:47;2.63;;;1.83;;
25846;SDS011;13676;50.168;8.568;2023-08-21T11:54:33;3.15;;;2.13;;
25846;SDS011;13676;50.168;8.568;2023-08-21T11:57:13;2.85;;;2.10;;
25846;SDS011;13676;50.168;8.568;2023-08-21T12:00:26;3.17;;;1.77;;
25846;SDS011;13676;50.168;8.568;2023-08-21T12:03:17;4.78;;;1.83;;
25846;SDS011;13676;50.168;8.568;2023-08-21T12:05:47;6.28;;;2.28;;
25846;SDS011;13676;50.168;8.568;2023-08-21T12:08:41;6.47;;;1.98;;
25846;SDS011;13676;50.168;8.568;2023-08-21T12:11:13;3.08;;;2.00;;
25846;SDS011;13676;50.168;8.568;2023-08-21T12:13:54;2.53;;;2.15;;
25846;SDS011;13676;50.168;8.568;2023-08-21T12:16:24;3.92;;;2.40;;
25846;SDS011;13676;50.168;8.568;2023-08-21T12:18:56;3.03;;;2.30;;
25846;SDS011;13676;50.168;8.568;2023-08-21T12:21:25;2.42;;;2.00;;
25846;SDS011;13676;50.168;8.568;2023-08-21T12:24:08;5.22;;;1.92;;
25846;SDS011;13676;50.168;8.568;2023-08-21T12:26:58;6.03;;;3.00;;
25846;SDS011;13676;50.168;8.568;2023-08-21T12:29:24;2.92;;;2.38;;
25846;SDS011;13676;50.168;8.568;2023-08-21T12:31:57;9.68;;;3.22;;
25846;SDS011;13676;50.168;8.568;2023-08-21T12:34:53;4.60;;;2.47;;
25846;SDS011;13676;50.168;8.568;2023-08-21T12:37:57;4.37;;;2.43;;
25846;SDS011;13676;50.168;8.568;2023-08-21T12:40:43;5.25;;;2.55;;
25846;SDS011;13676;50.168;8.568;2023-08-21T12:43:56;4.25;;;2.65;;
25846;SDS011;13676;50.168;8.568;2023-08-21T12:50:26;3.03;;;2.10;;
25846;SDS011;13676;50.168;8.568;2023-08-21T12:53:25;3.15;;;2.10;;
25846;SDS011;13676;50.168;8.568;2023-08-21T12:55:50;1.83;;;1.73;;
25846;SDS011;13676;50.168;8.568;2023-08-21T12:58:16;2.97;;;2.40;;
25846;SDS011;13676;50.168;8.568;2023-08-21T13:00:43;3.25;;;2.70;;
25846;SDS011;13676;50.168;8.568;2023-08-21T13:03:08;5.22;;;2.83;;
25846;SDS011;13676;50.168;8.568;2023-08-21T13:05:36;3.40;;;2.22;;
25846;SDS011;13676;50.168;8.568;2023-08-21T13:08:01;1.92;;;1.70;;
25846;SDS011;13676;50.168;8.568;2023-08-21T13:10:27;2.13;;;1.50;;
25846;SDS011;13676;50.168;8.568;2023-08-21T13:12:53;3.65;;;1.60;;
25846;SDS011;13676;50.168;8.568;2023-08-21T13:15:18;1.35;;;1.25;;
25846;SDS011;13676;50.168;8.568;2023-08-21T13:17:44;3.47;;;1.50;;
25846;SDS011;13676;50.168;8.568;2023-08-21T13:20:09;4.90;;;1.73;;
25846;SDS011;13676;50.168;8.568;2023-08-21T13:22:48;2.67;;;1.90;;
25846;SDS011;13676;50.168;8.568;2023-08-21T13:25:18;2.63;;;2.10;;
25846;SDS011;13676;50.168;8.568;2023-08-21T13:27:45;3.33;;;1.90;;
25846;SDS011;13676;50.168;8.568;2023-08-21T13:30:11;2.40;;;1.60;;
25846;SDS011;13676;50.168;8.568;2023-08-21T13:32:38;4.00;;;1.92;;
25846;SDS011;13676;50.168;8.568;2023-08-21T13:35:03;2.25;;;1.50;;
25846;SDS011;13676;50.168;8.568;2023-08-21T13:37:33;3.30;;;1.95;;
25846;SDS011;13676;50.168;8.568;2023-08-21T13:39:59;3.60;;;1.70;;
25846;SDS011;13676;50.168;8.568;2023-08-21T13:42:26;2.65;;;1.23;;
25846;SDS011;13676;50.168;8.568;2023-08-21T13:44:55;1.92;;;1.20;;
25846;SDS011;13676;50.168;8.568;2023-08-21T13:47:22;2.35;;;1.67;;
25846;SDS011;13676;50.168;8.568;2023-08-21T13:49:47;1.83;;;1.50;;
25846;SDS011;13676;50.168;8.568;2023-08-21T13:52:13;1.97;;;1.67;;
25846;SDS011;13676;50.168;8.568;2023-08-21T13:54:38;2.93;;;2.00;;
25846;SDS011;13676;50.168;8.568;2023-08-21T13:57:04;2.58;;;2.00;;
25846;SDS011;13676;50.168;8.568;2023-08-21T13:59:29;1.42;;;1.33;;
25846;SDS011;13676;50.168;8.568;2023-08-21T14:01:56;1.70;;;1.47;;
25846;SDS011;13676;50.168;8.568;2023-08-21T14:04:47;2.88;;;1.80;;
25846;SDS011;13676;50.168;8.568;2023-08-21T14:07:59;2.65;;;1.75;;
25846;SDS011;13676;50.168;8.568;2023-08-21T14:11:11;2.70;;;1.67;;
25846;SDS011;13676;50.168;8.568;2023-08-21T14:14:10;3.17;;;1.50;;
25846;SDS011;13676;50.168;8.568;2023-08-21T14:16:45;2.45;;;1.88;;
25846;SDS011;13676;50.168;8.568;2023-08-21T14:20:21;2.13;;;1.90;;
25846;SDS011;13676;50.168;8.568;2023-08-21T14:23:53;2.35;;;1.60;;
25846;SDS011;13676;50.168;8.568;2023-08-21T14:26:52;4.35;;;1.40;;
25846;SDS011;13676;50.168;8.568;2023-08-21T14:30:10;3.58;;;1.80;;
25846;SDS011;13676;50.168;8.568;2023-08-21T14:33:37;2.58;;;1.65;;
25846;SDS011;13676;50.168;8.568;2023-08-21T14:36:56;2.97;;;1.92;;
25846;SDS011;13676;50.168;8.568;2023-08-21T14:40:30;2.35;;;1.52;;
25846;SDS011;13676;50.168;8.568;2023-08-21T14:47:08;4.70;;;2.10;;
25846;SDS011;13676;50.168;8.568;2023-08-21T14:50:15;3.67;;;1.95;;
25846;SDS011;13676;50.168;8.568;2023-08-21T14:52:58;1.65;;;1.40;;
25846;SDS011;13676;50.168;8.568;2023-08-21T14:56:02;2.05;;;1.52;;
25846;SDS011;13676;50.168;8.568;2023-08-21T14:59:06;1.67;;;1.50;;
25846;SDS011;13676;50.168;8.568;2023-08-21T15:01:42;1.27;;;1.17;;
25846;SDS011;13676;50.168;8.568;2023-08-21T15:04:35;4.20;;;1.13;;
25846;SDS011;13676;50.168;8.568;2023-08-21T15:07:44;2.08;;;1.55;;
25846;SDS011;13676;50.168;8.568;2023-08-21T15:10:33;3.22;;;1.30;;
25846;SDS011;13676;50.168;8.568;2023-08-21T15:13:26;2.15;;;1.25;;
25846;SDS011;13676;50.168;8.568;2023-08-21T15:17:02;2.20;;;1.20;;
25846;SDS011;13676;50.168;8.568;2023-08-21T15:19:50;1.63;;;1.10;;
25846;SDS011;13676;50.168;8.568;2023-08-21T15:22:57;1.55;;;1.02;;
25846;SDS011;13676;50.168;8.568;2023-08-21T15:26:40;1.65;;;1.33;;
25846;SDS011;13676;50.168;8.568;2023-08-21T15:29:39;1.23;;;1.00;;
25846;SDS011;13676;50.168;8.568;2023-08-21T15:32:48;1.35;;;1.08;;
25846;SDS011;13676;50.168;8.568;2023-08-21T15:35:40;1.98;;;1.10;;
25846;SDS011;13676;50.168;8.568;2023-08-21T15:38:08;2.50;;;1.23;;
25846;SDS011;13676;50.168;8.568;2023-08-21T15:40:42;1.50;;;1.13;;
25846;SDS011;13676;50.168;8.568;2023-08-21T15:43:33;2.67;;;1.17;;
25846;SDS011;13676;50.168;8.568;2023-08-21T15:46:17;3.92;;;1.15;;
25846;SDS011;13676;50.168;8.568;2023-08-21T15:49:08;3.03;;;1.10;;
25846;SDS011;13676;50.168;8.568;2023-08-21T15:52:03;2.22;;;1.00;;
25846;SDS011;13676;50.168;8.568;2023-08-21T15:54:40;3.30;;;0.82;;
25846;SDS011;13676;50.168;8.568;2023-08-21T15:57:33;1.95;;;1.42;;
25846;SDS011;13676;50.168;8.568;2023-08-21T16:00:32;1.73;;;1.27;;
25846;SDS011;13676;50.168;8.568;2023-08-21T16:03:25;1.50;;;1.00;;
25846;SDS011;13676;50.168;8.568;2023-08-21T16:05:59;2.20;;;1.27;;
25846;SDS011;13676;50.168;8.568;2023-08-21T16:08:31;3.00;;;1.40;;
25846;SDS011;13676;50.168;8.568;2023-08-21T16:11:14;1.42;;;1.13;;
25846;SDS011;13676;50.168;8.568;2023-08-21T16:14:17;1.42;;;1.00;;
25846;SDS011;13676;50.168;8.568;2023-08-21T16:17:17;1.35;;;1.00;;
25846;SDS011;13676;50.168;8.568;2023-08-21T16:19:45;2.00;;;1.15;;
25846;SDS011;13676;50.168;8.568;2023-08-21T16:22:12;1.25;;;1.10;;
25846;SDS011;13676;50.168;8.568;2023-08-21T16:27:02;1.23;;;0.97;;
25846;SDS011;13676;50.168;8.568;2023-08-21T16:29:28;2.15;;;0.70;;
25846;SDS011;13676;50.168;8.568;2023-08-21T16:31:53;1.70;;;1.30;;
25846;SDS011;13676;50.168;8.568;2023-08-21T16:34:19;1.25;;;1.00;;
25846;SDS011;13676;50.168;8.568;2023-08-21T16:36:45;2.40;;;0.90;;
25846;SDS011;13676;50.168;8.568;2023-08-21T16:39:11;1.73;;;1.10;;
25846;SDS011;13676;50.168;8.568;2023-08-21T16:41:37;1.25;;;0.70;;
25846;SDS011;13676;50.168;8.568;2023-08-21T16:44:06;0.82;;;0.80;;
25846;SDS011;13676;50.168;8.568;2023-08-21T16:46:38;1.33;;;1.00;;
25846;SDS011;13676;50.168;8.568;2023-08-21T16:49:05;1.35;;;1.02;;
25846;SDS011;13676;50.168;8.568;2023-08-21T16:51:34;1.00;;;0.75;;
25846;SDS011;13676;50.168;8.568;2023-08-21T16:54:28;4.07;;;1.33;;
25846;SDS011;13676;50.168;8.568;2023-08-21T16:56:59;2.22;;;0.80;;
25846;SDS011;13676;50.168;8.568;2023-08-21T16:59:27;1.25;;;1.00;;
25846;SDS011;13676;50.168;8.568;2023-08-21T17:02:20;3.75;;;1.30;;
25846;SDS011;13676;50.168;8.568;2023-08-21T17:04:49;2.15;;;1.00;;
25846;SDS011;13676;50.168;8.568;2023-08-21T17:07:47;1.83;;;0.90;;
25846;SDS011;13676;50.168;8.568;2023-08-21T17:10:49;0.82;;;0.70;;
25846;SDS011;13676;50.168;8.568;2023-08-21T17:13:41;2.22;;;0.93;;
25846;SDS011;13676;50.168;8.568;2023-08-21T17:16:10;1.50;;;0.88;;
25846;SDS011;13676;50.168;8.568;2023-08-21T17:18:45;1.92;;;0.98;;
25846;SDS011;13676;50.168;8.568;2023-08-21T17:21:33;5.18;;;1.50;;
25846;SDS011;13676;50.168;8.568;2023-08-21T17:24:06;4.93;;;1.48;;
25846;SDS011;13676;50.168;8.568;2023-08-21T17:26:36;3.38;;;1.50;;
25846;SDS011;13676;50.168;8.568;2023-08-21T17:29:05;4.00;;;1.52;;
25846;SDS011;13676;50.168;8.568;2023-08-21T17:31:32;2.53;;;1.60;;
25846;SDS011;13676;50.168;8.568;2023-08-21T17:33:59;3.15;;;1.60;;
25846;SDS011;13676;50.168;8.568;2023-08-21T17:36:24;3.87;;;1.73;;
25846;SDS011;13676;50.168;8.568;2023-08-21T17:38:50;2.30;;;1.37;;
25846;SDS011;13676;50.168;8.568;2023-08-21T17:41:15;2.42;;;1.50;;
25846;SDS011;13676;50.168;8.568;2023-08-21T17:43:41;6.43;;;1.88;;
25846;SDS011;13676;50.168;8.568;2023-08-21T17:46:06;2.03;;;1.42;;
25846;SDS011;13676;50.168;8.568;2023-08-21T17:48:32;2.50;;;1.80;;
25846;SDS011;13676;50.168;8.568;2023-08-21T17:50:57;3.00;;;1.80;;
25846;SDS011;13676;50.168;8.568;2023-08-21T17:53:27;3.63;;;1.60;;
25846;SDS011;13676;50.168;8.568;2023-08-21T17:55:52;4.13;;;2.05;;
25846;SDS011;13676;50.168;8.568;2023-08-21T17:58:18;4.43;;;1.60;;
25846;SDS011;13676;50.168;8.568;2023-08-21T18:00:43;2.95;;;1.90;;
25846;SDS011;13676;50.168;8.568;2023-08-21T18:03:08;3.13;;;1.90;;
25846;SDS011;13676;50.168;8.568;2023-08-21T18:05:34;3.72;;;1.75;;
25846;SDS011;13676;50.168;8.568;2023-08-21T18:07:59;6.03;;;1.90;;
25846;SDS011;13676;50.168;8.568;2023-08-21T18:10:25;1.75;;;1.52;;
25846;SDS011;13676;50.168;8.568;2023-08-21T18:12:50;1.90;;;1.52;;
25846;SDS011;13676;50.168;8.568;2023-08-21T18:15:16;3.05;;;1.63;;
25846;SDS011;13676;50.168;8.568;2023-08-21T18:17:41;4.50;;;1.77;;
25846;SDS011;13676;50.168;8.568;2023-08-21T18:20:07;2.92;;;1.98;;
25846;SDS011;13676;50.168;8.568;2023-08-21T18:22:34;7.93;;;2.15;;
25846;SDS011;13676;50.168;8.568;2023-08-21T18:25:00;8.13;;;2.13;;
25846;SDS011;13676;50.168;8.568;2023-08-21T18:27:25;5.97;;;2.03;;
25846;SDS011;13676;50.168;8.568;2023-08-21T18:29:51;4.05;;;1.95;;
25846;SDS011;13676;50.168;8.568;2023-08-21T18:32:17;4.28;;;1.88;;
25846;SDS011;13676;50.168;8.568;2023-08-21T18:34:42;3.60;;;1.95;;
25846;SDS011;13676;50.168;8.568;2023-08-21T18:37:08;3.50;;;2.00;;
25846;SDS011;13676;50.168;8.568;2023-08-21T18:39:34;3.00;;;2.00;;
25846;SDS011;13676;50.168;8.568;2023-08-21T18:41:59;3.53;;;1.92;;
25846;SDS011;13676;50.168;8.568;2023-08-21T18:44:24;3.67;;;2.53;;
25846;SDS011;13676;50.168;8.568;2023-08-21T18:46:50;5.70;;;1.70;;
25846;SDS011;13676;50.168;8.568;2023-08-21T18:49:16;3.10;;;2.10;;
25846;SDS011;13676;50.168;8.568;2023-08-21T18:51:44;5.80;;;2.25;;
25846;SDS011;13676;50.168;8.568;2023-08-21T18:54:10;3.20;;;1.90;;
25846;SDS011;13676;50.168;8.568;2023-08-21T18:56:35;6.18;;;2.28;;
25846;SDS011;13676;50.168;8.568;2023-08-21T18:59:01;5.47;;;2.22;;
25846;SDS011;13676;50.168;8.568;2023-08-21T19:01:29;3.53;;;2.00;;
25846;SDS011;13676;50.168;8.568;2023-08-21T19:03:54;5.65;;;2.30;;
25846;SDS011;13676;50.168;8.568;2023-08-21T19:06:20;4.75;;;2.28;;
25846;SDS011;13676;50.168;8.568;2023-08-21T19:08:45;4.25;;;2.40;;
25846;SDS011;13676;50.168;8.568;2023-08-21T19:11:11;3.97;;;2.45;;